createdAt,value
2017-06-23T00:00:58.076Z,19.44
2017-06-23T00:01:58.652Z,19.48
2017-06-23T00:02:59.229Z,19.41
2017-06-23T00:03:59.806Z,19.44
2017-06-23T00:05:00.395Z,19.31
2017-06-23T00:06:00.973Z,19.30
2017-06-23T00:07:01.551Z,19.30
2017-06-23T00:08:02.128Z,19.30
2017-06-23T00:09:02.704Z,19.37
2017-06-23T00:10:03.282Z,19.39
2017-06-23T00:11:03.858Z,19.33
2017-06-23T00:12:04.436Z,19.37
2017-06-23T00:13:05.013Z,19.21
2017-06-23T00:14:05.590Z,19.30
2017-06-23T00:15:06.168Z,19.19
2017-06-23T00:16:06.744Z,19.11
2017-06-23T00:17:07.320Z,19.24
2017-06-23T00:18:07.897Z,19.15
2017-06-23T00:19:08.474Z,19.18
2017-06-23T00:20:09.050Z,19.16
2017-06-23T00:21:09.626Z,19.21
2017-06-23T00:22:10.203Z,19.21
2017-06-23T00:23:10.780Z,19.24
2017-06-23T00:24:11.356Z,19.15
2017-06-23T00:25:11.934Z,19.24
2017-06-23T00:26:12.510Z,19.26
2017-06-23T00:27:13.100Z,19.24
2017-06-23T00:28:13.675Z,19.12
2017-06-23T00:29:14.254Z,19.18
2017-06-23T00:30:14.831Z,19.09
2017-06-23T00:31:15.409Z,19.22
2017-06-23T00:32:15.985Z,19.16
2017-06-23T00:33:16.563Z,19.16
2017-06-23T00:34:17.140Z,19.15
2017-06-23T00:35:17.720Z,19.12
2017-06-23T00:36:18.295Z,19.12
2017-06-23T00:37:18.872Z,19.15
2017-06-23T00:38:19.449Z,19.08
2017-06-23T00:39:20.030Z,19.12
2017-06-23T00:40:20.616Z,19.04
2017-06-23T00:41:21.193Z,19.08
2017-06-23T00:42:21.771Z,19.12
2017-06-23T00:43:22.360Z,19.08
2017-06-23T00:44:22.937Z,19.07
2017-06-23T00:45:23.516Z,19.19
2017-06-23T00:46:24.093Z,19.15
2017-06-23T00:47:24.671Z,19.11
2017-06-23T00:48:25.250Z,19.18
2017-06-23T00:49:25.828Z,19.24
2017-06-23T00:50:26.406Z,19.21
2017-06-23T00:51:26.995Z,19.21
2017-06-23T00:52:27.584Z,19.14
2017-06-23T00:53:28.161Z,19.14
2017-06-23T00:54:28.737Z,19.11
2017-06-23T00:55:29.314Z,19.12
2017-06-23T00:56:29.903Z,19.24
2017-06-23T00:57:30.482Z,19.29
2017-06-23T00:58:31.058Z,19.31
2017-06-23T00:59:31.638Z,19.15
2017-06-23T01:00:32.214Z,19.21
2017-06-23T01:01:32.792Z,19.27
2017-06-23T01:02:33.369Z,19.22
2017-06-23T01:03:33.946Z,19.18
2017-06-23T01:04:34.523Z,19.18
2017-06-23T01:05:35.101Z,19.22
2017-06-23T01:06:35.678Z,19.26
2017-06-23T01:07:36.253Z,19.27
2017-06-23T01:08:36.831Z,19.12
2017-06-23T01:09:37.406Z,19.22
2017-06-23T01:10:37.983Z,19.16
2017-06-23T01:11:38.559Z,19.12
2017-06-23T01:12:39.136Z,19.21
2017-06-23T01:13:39.718Z,19.21
2017-06-23T01:14:40.290Z,19.29
2017-06-23T01:15:40.867Z,19.29
2017-06-23T01:16:41.443Z,19.19
2017-06-23T01:17:42.038Z,19.09
2017-06-23T01:18:42.597Z,19.18
2017-06-23T01:19:43.173Z,19.21
2017-06-23T01:20:43.762Z,19.07
2017-06-23T01:21:44.340Z,19.15
2017-06-23T01:22:44.927Z,19.11
2017-06-23T01:23:45.504Z,19.24
2017-06-23T01:24:46.081Z,19.09
2017-06-23T01:25:46.657Z,19.14
2017-06-23T01:26:47.234Z,19.12
2017-06-23T01:27:47.811Z,19.26
2017-06-23T01:28:48.387Z,19.02
2017-06-23T01:29:48.964Z,19.02
2017-06-23T01:30:49.543Z,19.02
2017-06-23T01:31:50.122Z,19.18
2017-06-23T01:32:50.699Z,19.15
2017-06-23T01:33:51.288Z,19.14
2017-06-23T01:34:51.865Z,19.04
2017-06-23T01:35:52.442Z,19.08
2017-06-23T01:36:53.032Z,19.04
2017-06-23T01:37:53.609Z,18.93
2017-06-23T01:38:54.187Z,18.98
2017-06-23T01:39:54.765Z,19.07
2017-06-23T01:40:55.342Z,19.09
2017-06-23T01:41:55.919Z,19.08
2017-06-23T01:42:56.496Z,18.92
2017-06-23T01:43:57.074Z,18.92
2017-06-23T01:44:57.650Z,18.99
2017-06-23T01:45:58.227Z,18.96
2017-06-23T01:46:58.802Z,19.00
2017-06-23T01:47:59.380Z,19.07
2017-06-23T01:48:59.956Z,19.14
2017-06-23T01:50:00.547Z,19.04
2017-06-23T01:51:01.122Z,19.07
2017-06-23T01:52:01.718Z,19.11
2017-06-23T01:53:02.291Z,18.89
2017-06-23T01:54:02.868Z,18.89
2017-06-23T01:55:03.447Z,18.88
2017-06-23T01:56:04.024Z,18.89
2017-06-23T01:57:04.603Z,18.96
2017-06-23T01:58:05.179Z,18.83
2017-06-23T01:59:05.759Z,18.84
2017-06-23T02:00:06.348Z,18.92
2017-06-23T02:01:06.926Z,18.93
2017-06-23T02:02:07.505Z,19.07
2017-06-23T02:03:08.082Z,19.00
2017-06-23T02:04:08.664Z,19.00
2017-06-23T02:05:09.238Z,19.02
2017-06-23T02:06:09.825Z,18.99
2017-06-23T02:07:10.404Z,18.90
2017-06-23T02:08:10.994Z,18.86
2017-06-23T02:09:11.570Z,18.92
2017-06-23T02:10:12.147Z,18.88
2017-06-23T02:11:12.725Z,18.78
2017-06-23T02:12:13.315Z,18.88
2017-06-23T02:13:13.891Z,18.92
2017-06-23T02:14:14.470Z,18.90
2017-06-23T02:15:15.048Z,18.86
2017-06-23T02:16:15.625Z,18.90
2017-06-23T02:17:16.201Z,18.90
2017-06-23T02:18:16.777Z,18.90
2017-06-23T02:19:17.354Z,18.83
2017-06-23T02:20:17.932Z,18.88
2017-06-23T02:21:18.510Z,18.90
2017-06-23T02:22:19.087Z,18.78
2017-06-23T02:23:19.665Z,18.86
2017-06-23T02:24:20.239Z,18.86
2017-06-23T02:25:20.816Z,18.74
2017-06-23T02:26:21.394Z,18.84
2017-06-23T02:27:21.972Z,18.90
2017-06-23T02:28:22.549Z,18.90
2017-06-23T02:29:23.128Z,18.89
2017-06-23T02:30:23.707Z,18.90
2017-06-23T02:31:24.286Z,18.95
2017-06-23T02:32:24.862Z,18.83
2017-06-23T02:33:25.446Z,18.84
2017-06-23T02:34:26.017Z,18.80
2017-06-23T02:35:26.606Z,18.88
2017-06-23T02:36:27.185Z,18.86
2017-06-23T02:37:27.761Z,18.83
2017-06-23T02:38:28.340Z,18.88
2017-06-23T02:39:28.917Z,18.96
2017-06-23T02:40:29.495Z,18.86
2017-06-23T02:41:30.073Z,18.90
2017-06-23T02:42:30.650Z,18.86
2017-06-23T02:43:31.227Z,18.83
2017-06-23T02:44:31.808Z,18.84
2017-06-23T02:45:32.385Z,18.88
2017-06-23T02:46:32.963Z,18.80
2017-06-23T02:47:33.541Z,18.74
2017-06-23T02:48:34.118Z,18.73
2017-06-23T02:49:34.707Z,18.71
2017-06-23T02:50:35.283Z,18.73
2017-06-23T02:51:35.861Z,18.77
2017-06-23T02:52:36.438Z,18.80
2017-06-23T02:53:37.014Z,18.80
2017-06-23T02:54:37.591Z,18.81
2017-06-23T02:55:38.167Z,18.78
2017-06-23T02:56:38.743Z,18.70
2017-06-23T02:57:39.320Z,18.71
2017-06-23T02:58:39.897Z,18.75
2017-06-23T02:59:40.474Z,18.68
2017-06-23T03:00:41.052Z,18.77
2017-06-23T03:01:41.629Z,18.83
2017-06-23T03:02:42.207Z,18.80
2017-06-23T03:03:42.786Z,18.73
2017-06-23T03:04:43.365Z,18.63
2017-06-23T03:05:43.941Z,18.74
2017-06-23T03:06:44.520Z,18.80
2017-06-23T03:07:45.099Z,18.70
2017-06-23T03:08:45.675Z,18.74
2017-06-23T03:09:46.253Z,18.66
2017-06-23T03:10:46.830Z,18.68
2017-06-23T03:11:47.408Z,18.66
2017-06-23T03:12:47.987Z,18.62
2017-06-23T03:13:48.564Z,18.59
2017-06-23T03:14:49.142Z,18.60
2017-06-23T03:15:49.725Z,18.58
2017-06-23T03:16:50.301Z,18.52
2017-06-23T03:17:50.879Z,18.55
2017-06-23T03:18:51.458Z,18.47
2017-06-23T03:19:52.037Z,18.38
2017-06-23T03:20:52.615Z,18.45
2017-06-23T03:21:53.193Z,18.49
2017-06-23T03:22:53.772Z,18.44
2017-06-23T03:23:54.350Z,18.50
2017-06-23T03:24:54.930Z,18.44
2017-06-23T03:25:55.510Z,18.52
2017-06-23T03:26:56.089Z,18.38
2017-06-23T03:27:56.680Z,18.37
2017-06-23T03:28:57.258Z,18.49
2017-06-23T03:29:57.837Z,18.45
2017-06-23T03:30:58.415Z,18.43
2017-06-23T03:31:59.006Z,18.26
2017-06-23T03:32:59.584Z,18.50
2017-06-23T03:34:00.176Z,18.45
2017-06-23T03:35:00.752Z,18.35
2017-06-23T03:36:01.332Z,18.29
2017-06-23T03:37:01.910Z,18.28
2017-06-23T03:38:02.489Z,18.29
2017-06-23T03:39:03.067Z,18.38
2017-06-23T03:40:03.646Z,18.41
2017-06-23T03:41:04.224Z,18.35
2017-06-23T03:42:04.801Z,18.37
2017-06-23T03:43:05.379Z,18.37
2017-06-23T03:44:05.957Z,18.44
2017-06-23T03:45:06.533Z,18.37
2017-06-23T03:46:07.112Z,18.23
2017-06-23T03:47:07.691Z,18.20
2017-06-23T03:48:08.270Z,18.28
2017-06-23T03:49:08.849Z,18.20
2017-06-23T03:50:09.428Z,18.23
2017-06-23T03:51:10.008Z,18.18
2017-06-23T03:52:10.586Z,18.23
2017-06-23T03:53:11.165Z,18.28
2017-06-23T03:54:11.746Z,18.16
2017-06-23T03:55:12.326Z,18.16
2017-06-23T03:56:12.908Z,18.22
2017-06-23T03:57:13.486Z,18.10
2017-06-23T03:58:14.065Z,18.10
2017-06-23T03:59:14.893Z,18.04
2017-06-23T04:00:15.471Z,18.05
2017-06-23T04:01:16.050Z,18.07
2017-06-23T04:02:16.628Z,18.10
2017-06-23T04:03:17.209Z,18.07
2017-06-23T04:04:17.792Z,18.07
2017-06-23T04:05:18.369Z,18.10
2017-06-23T04:06:18.960Z,18.13
2017-06-23T04:07:19.539Z,18.10
2017-06-23T04:08:20.121Z,18.10
2017-06-23T04:09:20.699Z,17.98
2017-06-23T04:10:21.278Z,18.13
2017-06-23T04:11:21.858Z,18.10
2017-06-23T04:12:22.437Z,18.11
2017-06-23T04:13:23.017Z,17.97
2017-06-23T04:14:23.596Z,18.08
2017-06-23T04:15:24.175Z,18.13
2017-06-23T04:16:24.753Z,18.07
2017-06-23T04:17:25.333Z,18.04
2017-06-23T04:18:25.912Z,18.16
2017-06-23T04:19:26.493Z,18.15
2017-06-23T04:20:27.074Z,17.98
2017-06-23T04:21:27.652Z,17.98
2017-06-23T04:22:28.230Z,18.07
2017-06-23T04:23:28.810Z,18.13
2017-06-23T04:24:29.389Z,18.07
2017-06-23T04:25:29.969Z,18.15
2017-06-23T04:26:30.549Z,18.07
2017-06-23T04:27:31.128Z,18.20
2017-06-23T04:28:31.708Z,18.15
2017-06-23T04:29:32.288Z,18.07
2017-06-23T04:30:32.869Z,18.07
2017-06-23T04:31:33.449Z,18.10
2017-06-23T04:32:34.030Z,18.15
2017-06-23T04:33:34.609Z,18.10
2017-06-23T04:34:35.202Z,18.26
2017-06-23T04:35:35.781Z,18.23
2017-06-23T04:36:36.360Z,18.19
2017-06-23T04:37:36.943Z,18.23
2017-06-23T04:38:37.524Z,18.10
2017-06-23T04:39:38.104Z,18.18
2017-06-23T04:40:38.683Z,18.31
2017-06-23T04:41:39.263Z,18.22
2017-06-23T04:42:39.842Z,18.31
2017-06-23T04:43:40.424Z,18.31
2017-06-23T04:44:41.002Z,18.31
2017-06-23T04:45:41.582Z,18.22
2017-06-23T04:46:42.161Z,18.19
2017-06-23T04:47:42.741Z,18.19
2017-06-23T04:48:43.323Z,18.25
2017-06-23T04:49:43.903Z,18.38
2017-06-23T04:50:44.484Z,18.49
2017-06-23T04:51:45.064Z,18.34
2017-06-23T04:52:45.645Z,18.41
2017-06-23T04:53:46.223Z,18.40
2017-06-23T04:54:46.804Z,18.37
2017-06-23T04:55:47.385Z,18.43
2017-06-23T04:56:47.965Z,18.45
2017-06-23T04:57:48.546Z,18.34
2017-06-23T04:58:49.127Z,18.28
2017-06-23T04:59:49.706Z,18.35
2017-06-23T05:00:50.288Z,18.40
2017-06-23T05:01:50.866Z,18.50
2017-06-23T05:02:51.447Z,18.45
2017-06-23T05:03:52.027Z,18.35
2017-06-23T05:04:52.609Z,18.45
2017-06-23T05:05:53.190Z,18.44
2017-06-23T05:06:53.769Z,18.55
2017-06-23T05:07:54.348Z,18.52
2017-06-23T05:08:54.933Z,18.37
2017-06-23T05:09:55.510Z,18.49
2017-06-23T05:10:56.091Z,18.59
2017-06-23T05:11:56.671Z,18.55
2017-06-23T05:12:57.251Z,18.45
2017-06-23T05:13:57.833Z,18.52
2017-06-23T05:14:58.413Z,18.73
2017-06-23T05:15:58.994Z,18.74
2017-06-23T05:16:59.574Z,18.70
2017-06-23T05:18:00.153Z,18.80
2017-06-23T05:19:00.736Z,18.65
2017-06-23T05:20:01.315Z,18.62
2017-06-23T05:21:01.896Z,18.62
2017-06-23T05:22:02.475Z,18.58
2017-06-23T05:23:03.055Z,18.80
2017-06-23T05:24:03.637Z,18.77
2017-06-23T05:25:04.217Z,18.83
2017-06-23T05:26:04.798Z,18.96
2017-06-23T05:27:05.379Z,18.92
2017-06-23T05:28:05.958Z,18.74
2017-06-23T05:29:06.540Z,18.63
2017-06-23T05:30:07.120Z,18.78
2017-06-23T05:31:07.702Z,18.83
2017-06-23T05:32:08.282Z,18.99
2017-06-23T05:33:08.860Z,18.84
2017-06-23T05:34:09.442Z,18.93
2017-06-23T05:35:10.022Z,18.88
2017-06-23T05:36:10.603Z,19.02
2017-06-23T05:37:11.185Z,19.07
2017-06-23T05:38:11.765Z,19.19
2017-06-23T05:39:12.346Z,19.11
2017-06-23T05:40:12.927Z,18.99
2017-06-23T05:41:13.508Z,18.98
2017-06-23T05:42:14.088Z,19.21
2017-06-23T05:43:14.670Z,19.08
2017-06-23T05:44:15.251Z,19.04
2017-06-23T05:45:15.830Z,19.08
2017-06-23T05:46:16.411Z,19.04
2017-06-23T05:47:16.990Z,18.89
2017-06-23T05:48:17.572Z,19.00
2017-06-23T05:49:18.153Z,19.07
2017-06-23T05:50:18.734Z,19.07
2017-06-23T05:51:19.314Z,19.12
2017-06-23T05:52:19.896Z,19.15
2017-06-23T05:53:20.488Z,19.34
2017-06-23T05:54:21.068Z,19.48
2017-06-23T05:55:21.648Z,19.69
2017-06-23T05:56:22.235Z,19.47
2017-06-23T05:57:22.811Z,19.15
2017-06-23T05:58:23.392Z,19.29
2017-06-23T05:59:23.984Z,19.40
2017-06-23T06:00:24.565Z,19.39
2017-06-23T06:01:25.158Z,19.44
2017-06-23T06:02:25.737Z,19.36
2017-06-23T06:03:26.318Z,19.62
2017-06-23T06:04:26.898Z,19.59
2017-06-23T06:05:27.479Z,19.76
2017-06-23T06:06:28.060Z,19.56
2017-06-23T06:07:28.641Z,19.33
2017-06-23T06:08:29.221Z,19.59
2017-06-23T06:09:29.801Z,19.69
2017-06-23T06:10:30.383Z,19.71
2017-06-23T06:11:30.965Z,19.70
2017-06-23T06:12:31.546Z,19.79
2017-06-23T06:13:32.125Z,19.91
2017-06-23T06:14:32.718Z,19.89
2017-06-23T06:15:33.299Z,19.58
2017-06-23T06:16:33.881Z,19.44
2017-06-23T06:17:34.474Z,19.67
2017-06-23T06:18:35.053Z,19.59
2017-06-23T06:19:35.634Z,19.45
2017-06-23T06:20:36.216Z,19.49
2017-06-23T06:21:36.796Z,19.63
2017-06-23T06:22:37.376Z,19.58
2017-06-23T06:23:37.957Z,19.59
2017-06-23T06:24:38.537Z,19.47
2017-06-23T06:25:39.118Z,19.67
2017-06-23T06:26:39.698Z,19.49
2017-06-23T06:27:40.280Z,19.59
2017-06-23T06:28:40.859Z,19.51
2017-06-23T06:29:41.440Z,19.63
2017-06-23T06:30:42.022Z,19.52
2017-06-23T06:31:42.604Z,19.47
2017-06-23T06:32:43.185Z,19.63
2017-06-23T06:33:43.764Z,19.63
2017-06-23T06:34:44.358Z,19.55
2017-06-23T06:35:44.942Z,19.64
2017-06-23T06:36:45.519Z,19.88
2017-06-23T06:37:46.101Z,19.67
2017-06-23T06:38:46.692Z,19.79
2017-06-23T06:39:47.274Z,19.82
2017-06-23T06:40:47.856Z,20.03
2017-06-23T06:41:48.437Z,20.09
2017-06-23T06:42:49.017Z,20.00
2017-06-23T06:43:49.598Z,20.03
2017-06-23T06:44:50.179Z,19.85
2017-06-23T06:45:50.761Z,20.06
2017-06-23T06:46:51.343Z,20.02
2017-06-23T06:47:51.923Z,20.03
2017-06-23T06:48:52.503Z,20.10
2017-06-23T06:49:53.084Z,20.26
2017-06-23T06:50:53.666Z,20.34
2017-06-23T06:51:54.273Z,20.31
2017-06-23T06:52:54.841Z,20.66
2017-06-23T06:53:55.435Z,20.84
2017-06-23T06:54:56.016Z,20.60
2017-06-23T06:55:56.599Z,20.44
2017-06-23T06:56:57.178Z,20.66
2017-06-23T06:57:57.758Z,20.95
2017-06-23T06:58:58.341Z,20.80
2017-06-23T06:59:58.922Z,20.78
2017-06-23T07:00:59.504Z,20.60
2017-06-23T07:02:00.084Z,20.39
2017-06-23T07:03:00.664Z,20.41
2017-06-23T07:04:01.247Z,20.41
2017-06-23T07:05:01.829Z,20.43
2017-06-23T07:06:02.411Z,20.60
2017-06-23T07:07:02.992Z,20.69
2017-06-23T07:08:03.575Z,20.59
2017-06-23T07:09:04.155Z,20.58
2017-06-23T07:10:04.735Z,20.50
2017-06-23T07:11:05.319Z,20.51
2017-06-23T07:12:05.899Z,20.81
2017-06-23T07:13:06.482Z,20.77
2017-06-23T07:14:07.065Z,20.48
2017-06-23T07:15:07.644Z,20.77
2017-06-23T07:16:08.230Z,20.85
2017-06-23T07:17:08.807Z,20.87
2017-06-23T07:18:09.390Z,20.95
2017-06-23T07:19:09.971Z,20.66
2017-06-23T07:20:10.552Z,21.00
2017-06-23T07:21:11.134Z,20.90
2017-06-23T07:22:11.714Z,20.97
2017-06-23T07:23:12.297Z,21.25
2017-06-23T07:24:12.878Z,21.05
2017-06-23T07:25:13.459Z,21.20
2017-06-23T07:26:14.041Z,21.17
2017-06-23T07:27:14.634Z,21.43
2017-06-23T07:28:15.219Z,21.46
2017-06-23T07:29:15.796Z,21.50
2017-06-23T07:30:16.378Z,21.61
2017-06-23T07:31:16.960Z,21.57
2017-06-23T07:32:17.542Z,21.45
2017-06-23T07:33:18.123Z,21.33
2017-06-23T07:34:18.705Z,21.42
2017-06-23T07:35:19.285Z,21.39
2017-06-23T07:36:19.867Z,21.20
2017-06-23T07:37:20.452Z,21.37
2017-06-23T07:38:21.030Z,21.48
2017-06-23T07:39:21.613Z,21.43
2017-06-23T07:40:22.194Z,21.35
2017-06-23T07:41:22.776Z,21.54
2017-06-23T07:42:23.363Z,21.64
2017-06-23T07:43:23.939Z,21.73
2017-06-23T07:44:24.522Z,21.80
2017-06-23T07:45:25.104Z,21.77
2017-06-23T07:46:25.686Z,21.70
2017-06-23T07:47:26.270Z,21.58
2017-06-23T07:48:26.864Z,21.62
2017-06-23T07:49:27.445Z,21.45
2017-06-23T07:50:28.026Z,21.70
2017-06-23T07:51:28.609Z,21.54
2017-06-23T07:52:29.190Z,21.64
2017-06-23T07:53:29.773Z,21.46
2017-06-23T07:54:30.359Z,21.54
2017-06-23T07:55:30.937Z,21.36
2017-06-23T07:56:31.519Z,21.55
2017-06-23T07:57:32.099Z,21.62
2017-06-23T07:58:32.682Z,21.82
2017-06-23T07:59:33.263Z,21.52
2017-06-23T08:00:33.845Z,21.82
2017-06-23T08:01:34.427Z,21.72
2017-06-23T08:02:35.008Z,21.50
2017-06-23T08:03:35.590Z,21.92
2017-06-23T08:04:36.173Z,21.69
2017-06-23T08:05:36.756Z,21.58
2017-06-23T08:06:37.338Z,21.54
2017-06-23T08:07:37.919Z,21.57
2017-06-23T08:08:38.504Z,21.51
2017-06-23T08:09:39.086Z,21.69
2017-06-23T08:10:39.669Z,21.72
2017-06-23T08:11:40.248Z,21.70
2017-06-23T08:12:40.832Z,21.64
2017-06-23T08:13:41.417Z,21.85
2017-06-23T08:14:41.997Z,21.70
2017-06-23T08:15:42.578Z,21.83
2017-06-23T08:16:43.162Z,21.72
2017-06-23T08:17:43.744Z,21.96
2017-06-23T08:18:44.326Z,21.80
2017-06-23T08:19:44.908Z,21.55
2017-06-23T08:20:45.500Z,21.46
2017-06-23T08:21:46.096Z,21.64
2017-06-23T08:22:46.680Z,22.06
2017-06-23T08:23:47.263Z,21.95
2017-06-23T08:24:47.844Z,21.96
2017-06-23T08:25:48.426Z,22.11
2017-06-23T08:26:49.010Z,22.36
2017-06-23T08:27:49.594Z,22.63
2017-06-23T08:28:50.188Z,22.70
2017-06-23T08:29:50.772Z,22.47
2017-06-23T08:30:51.353Z,21.89
2017-06-23T08:31:51.935Z,22.02
2017-06-23T08:32:52.517Z,21.92
2017-06-23T08:33:53.099Z,22.13
2017-06-23T08:34:53.680Z,22.20
2017-06-23T08:35:54.263Z,22.14
2017-06-23T08:36:54.844Z,21.80
2017-06-23T08:37:55.426Z,22.20
2017-06-23T08:38:56.011Z,21.95
2017-06-23T08:39:56.592Z,21.80
2017-06-23T08:40:57.173Z,21.87
2017-06-23T08:41:57.754Z,21.51
2017-06-23T08:42:58.348Z,21.95
2017-06-23T08:43:58.931Z,21.95
2017-06-23T08:44:59.513Z,22.48
2017-06-23T08:46:00.096Z,22.25
2017-06-23T08:47:00.679Z,22.11
2017-06-23T08:48:01.263Z,21.93
2017-06-23T08:49:01.843Z,22.18
2017-06-23T08:50:02.426Z,22.25
2017-06-23T08:51:03.024Z,22.47
2017-06-23T08:52:03.603Z,22.81
2017-06-23T08:53:04.187Z,22.39
2017-06-23T08:54:04.769Z,22.35
2017-06-23T08:55:05.350Z,22.20
2017-06-23T08:56:05.932Z,22.22
2017-06-23T08:57:06.514Z,22.11
2017-06-23T08:58:07.097Z,22.00
2017-06-23T08:59:07.680Z,22.07
2017-06-23T09:00:08.263Z,22.26
2017-06-23T09:01:08.847Z,22.76
2017-06-23T09:02:09.430Z,23.08
2017-06-23T09:03:10.014Z,22.78
2017-06-23T09:04:10.594Z,22.98
2017-06-23T09:05:11.177Z,22.87
2017-06-23T09:06:11.760Z,22.45
2017-06-23T09:07:12.341Z,22.33
2017-06-23T09:08:12.924Z,22.32
2017-06-23T09:09:13.506Z,22.57
2017-06-23T09:10:14.089Z,22.85
2017-06-23T09:11:14.673Z,22.81
2017-06-23T09:12:15.256Z,22.94
2017-06-23T09:13:15.838Z,23.20
2017-06-23T09:14:16.421Z,23.21
2017-06-23T09:15:17.005Z,23.55
2017-06-23T09:16:17.588Z,23.68
2017-06-23T09:17:18.177Z,23.55
2017-06-23T09:18:18.753Z,23.44
2017-06-23T09:19:19.337Z,23.74
2017-06-23T09:20:19.921Z,23.44
2017-06-23T09:21:20.513Z,23.06
2017-06-23T09:22:21.107Z,22.85
2017-06-23T09:23:21.689Z,22.55
2017-06-23T09:24:22.271Z,22.73
2017-06-23T09:25:22.856Z,22.80
2017-06-23T09:26:23.436Z,22.85
2017-06-23T09:27:24.018Z,22.84
2017-06-23T09:28:24.599Z,22.98
2017-06-23T09:29:25.194Z,23.18
2017-06-23T09:30:25.776Z,23.18
2017-06-23T09:31:26.358Z,22.81
2017-06-23T09:32:26.944Z,23.09
2017-06-23T09:33:27.526Z,23.18
2017-06-23T09:34:28.109Z,23.34
2017-06-23T09:35:28.693Z,23.55
2017-06-23T09:36:29.287Z,23.44
2017-06-23T09:37:29.870Z,23.27
2017-06-23T09:38:30.452Z,23.09
2017-06-23T09:39:31.038Z,22.98
2017-06-23T09:40:31.620Z,23.40
2017-06-23T09:41:32.202Z,23.51
2017-06-23T09:42:32.786Z,23.56
2017-06-23T09:43:33.369Z,23.81
2017-06-23T09:44:33.952Z,23.68
2017-06-23T09:45:34.535Z,23.87
2017-06-23T09:46:35.127Z,23.31
2017-06-23T09:47:35.711Z,23.18
2017-06-23T09:48:36.295Z,23.17
2017-06-23T09:49:36.876Z,22.94
2017-06-23T09:50:37.460Z,22.90
2017-06-23T09:51:38.042Z,22.81
2017-06-23T09:52:38.889Z,22.81
2017-06-23T09:53:39.473Z,23.05
2017-06-23T09:54:40.059Z,23.00
2017-06-23T09:55:40.639Z,22.90
2017-06-23T09:56:41.220Z,23.06
2017-06-23T09:57:41.804Z,22.81
2017-06-23T09:58:42.388Z,22.91
2017-06-23T09:59:42.969Z,22.81
2017-06-23T10:00:43.552Z,22.70
2017-06-23T10:01:44.134Z,22.85
2017-06-23T10:02:44.718Z,22.80
2017-06-23T10:03:45.310Z,22.81
2017-06-23T10:04:45.892Z,22.68
2017-06-23T10:05:46.474Z,22.81
2017-06-23T10:06:47.058Z,22.83
2017-06-23T10:07:47.655Z,22.84
2017-06-23T10:08:48.238Z,22.98
2017-06-23T10:09:48.822Z,23.06
2017-06-23T10:10:49.404Z,23.08
2017-06-23T10:11:49.987Z,23.20
2017-06-23T10:12:50.573Z,23.24
2017-06-23T10:13:51.156Z,23.39
2017-06-23T10:14:51.738Z,23.48
2017-06-23T10:15:52.324Z,23.24
2017-06-23T10:16:52.907Z,23.28
2017-06-23T10:17:53.490Z,23.56
2017-06-23T10:18:54.073Z,23.40
2017-06-23T10:19:54.657Z,23.32
2017-06-23T10:20:55.242Z,23.61
2017-06-23T10:21:55.825Z,23.78
2017-06-23T10:22:56.408Z,23.41
2017-06-23T10:23:56.991Z,23.58
2017-06-23T10:24:57.575Z,23.48
2017-06-23T10:25:58.157Z,23.23
2017-06-23T10:26:58.739Z,23.25
2017-06-23T10:27:59.323Z,23.10
2017-06-23T10:28:59.905Z,23.27
2017-06-23T10:30:00.487Z,23.10
2017-06-23T10:31:01.072Z,23.00
2017-06-23T10:32:01.653Z,23.06
2017-06-23T10:33:02.247Z,22.94
2017-06-23T10:34:02.830Z,23.21
2017-06-23T10:35:03.426Z,23.21
2017-06-23T10:36:04.007Z,23.46
2017-06-23T10:37:04.590Z,23.43
2017-06-23T10:38:05.175Z,23.09
2017-06-23T10:39:05.758Z,23.50
2017-06-23T10:40:06.343Z,23.62
2017-06-23T10:41:06.925Z,23.62
2017-06-23T10:42:07.509Z,23.99
2017-06-23T10:43:08.103Z,24.10
2017-06-23T10:44:08.688Z,24.48
2017-06-23T10:45:09.271Z,24.39
2017-06-23T10:46:09.855Z,23.99
2017-06-23T10:47:10.450Z,24.38
2017-06-23T10:48:11.033Z,24.06
2017-06-23T10:49:11.616Z,23.78
2017-06-23T10:50:12.202Z,23.99
2017-06-23T10:51:12.785Z,23.93
2017-06-23T10:52:13.369Z,23.93
2017-06-23T10:53:13.952Z,24.11
2017-06-23T10:54:14.535Z,24.40
2017-06-23T10:55:15.131Z,24.42
2017-06-23T10:56:15.715Z,24.01
2017-06-23T10:57:16.311Z,24.02
2017-06-23T10:58:16.895Z,24.05
2017-06-23T10:59:17.480Z,24.28
2017-06-23T11:00:18.065Z,24.16
2017-06-23T11:01:18.646Z,23.84
2017-06-23T11:02:19.231Z,23.81
2017-06-23T11:03:19.815Z,24.13
2017-06-23T11:04:20.397Z,24.32
2017-06-23T11:05:20.980Z,24.55
2017-06-23T11:06:21.576Z,24.89
2017-06-23T11:07:22.157Z,24.91
2017-06-23T11:08:22.740Z,24.78
2017-06-23T11:09:23.335Z,24.98
2017-06-23T11:10:23.918Z,25.10
2017-06-23T11:11:24.501Z,24.54
2017-06-23T11:12:25.086Z,24.45
2017-06-23T11:13:25.670Z,24.61
2017-06-23T11:14:26.257Z,24.63
2017-06-23T11:15:26.838Z,24.51
2017-06-23T11:16:27.423Z,23.95
2017-06-23T11:17:28.008Z,24.01
2017-06-23T11:18:28.590Z,23.81
2017-06-23T11:19:29.175Z,24.05
2017-06-23T11:20:29.760Z,23.91
2017-06-23T11:21:30.345Z,23.96
2017-06-23T11:22:30.928Z,23.99
2017-06-23T11:23:31.527Z,24.24
2017-06-23T11:24:32.117Z,24.26
2017-06-23T11:25:32.691Z,24.23
2017-06-23T11:26:33.275Z,24.58
2017-06-23T11:27:33.857Z,24.86
2017-06-23T11:28:34.440Z,24.47
2017-06-23T11:29:35.022Z,24.14
2017-06-23T11:30:35.606Z,23.91
2017-06-23T11:31:36.188Z,24.17
2017-06-23T11:32:36.783Z,24.01
2017-06-23T11:33:37.366Z,23.99
2017-06-23T11:34:37.948Z,23.92
2017-06-23T11:35:38.532Z,23.80
2017-06-23T11:36:39.114Z,24.06
2017-06-23T11:37:39.696Z,24.01
2017-06-23T11:38:40.281Z,24.28
2017-06-23T11:39:40.862Z,24.32
2017-06-23T11:40:41.445Z,24.24
2017-06-23T11:41:42.027Z,24.18
2017-06-23T11:42:42.623Z,24.14
2017-06-23T11:43:43.204Z,24.23
2017-06-23T11:44:43.788Z,24.01
2017-06-23T11:45:44.373Z,24.08
2017-06-23T11:46:44.959Z,24.38
2017-06-23T11:47:45.543Z,24.02
2017-06-23T11:48:46.127Z,24.11
2017-06-23T11:49:46.711Z,24.39
2017-06-23T11:50:47.293Z,24.16
2017-06-23T11:51:47.879Z,24.17
2017-06-23T11:52:48.462Z,24.21
2017-06-23T11:53:49.046Z,24.40
2017-06-23T11:54:49.632Z,24.66
2017-06-23T11:55:50.218Z,24.78
2017-06-23T11:56:50.810Z,24.89
2017-06-23T11:57:51.393Z,24.80
2017-06-23T11:58:51.976Z,24.89
2017-06-23T11:59:52.563Z,25.31
2017-06-23T12:00:53.156Z,25.07
2017-06-23T12:01:53.741Z,24.98
2017-06-23T12:02:54.324Z,25.53
2017-06-23T12:03:54.909Z,25.93
2017-06-23T12:04:55.493Z,25.99
2017-06-23T12:05:56.090Z,25.72
2017-06-23T12:06:56.673Z,25.70
2017-06-23T12:07:57.258Z,25.60
2017-06-23T12:08:57.856Z,25.48
2017-06-23T12:09:58.440Z,24.93
2017-06-23T12:10:59.024Z,24.60
2017-06-23T12:11:59.608Z,24.66
2017-06-23T12:13:00.192Z,25.13
2017-06-23T12:14:00.778Z,24.98
2017-06-23T12:15:01.360Z,24.73
2017-06-23T12:16:01.945Z,24.85
2017-06-23T12:17:02.529Z,24.92
2017-06-23T12:18:03.112Z,24.99
2017-06-23T12:19:03.696Z,24.89
2017-06-23T12:20:04.278Z,24.98
2017-06-23T12:21:04.861Z,24.57
2017-06-23T12:22:05.448Z,24.47
2017-06-23T12:23:06.040Z,24.48
2017-06-23T12:24:06.623Z,24.42
2017-06-23T12:25:07.208Z,24.53
2017-06-23T12:26:07.791Z,24.61
2017-06-23T12:27:08.376Z,24.51
2017-06-23T12:28:08.960Z,24.51
2017-06-23T12:29:09.544Z,24.54
2017-06-23T12:30:10.130Z,24.57
2017-06-23T12:31:10.714Z,24.92
2017-06-23T12:32:11.298Z,25.01
2017-06-23T12:33:11.884Z,24.92
2017-06-23T12:34:12.466Z,24.96
2017-06-23T12:35:13.049Z,24.73
2017-06-23T12:36:13.633Z,24.77
2017-06-23T12:37:14.218Z,24.57
2017-06-23T12:38:14.804Z,24.77
2017-06-23T12:39:15.388Z,24.70
2017-06-23T12:40:15.971Z,25.08
2017-06-23T12:41:16.557Z,24.77
2017-06-23T12:42:17.152Z,25.10
2017-06-23T12:43:17.736Z,25.10
2017-06-23T12:44:18.322Z,24.98
2017-06-23T12:45:18.904Z,24.73
2017-06-23T12:46:19.489Z,25.06
2017-06-23T12:47:20.075Z,24.84
2017-06-23T12:48:20.659Z,25.03
2017-06-23T12:49:21.242Z,25.29
2017-06-23T12:50:21.829Z,25.28
2017-06-23T12:51:22.411Z,25.41
2017-06-23T12:52:23.007Z,25.41
2017-06-23T12:53:23.593Z,25.23
2017-06-23T12:54:24.177Z,25.28
2017-06-23T12:55:24.761Z,25.21
2017-06-23T12:56:25.346Z,25.13
2017-06-23T12:57:25.929Z,25.35
2017-06-23T12:58:26.514Z,25.10
2017-06-23T12:59:27.095Z,25.22
2017-06-23T13:00:27.679Z,25.10